Time;durP1;ratioP1;P1;durP2;ratioP2;P2;SDS_P1;SDS_P2;PMS_P1;PMS_P2;Temp;Humidity;BMP_temperature;BMP_pressure;BME280_temperature;BME280_humidity;BME280_pressure;Samples;Min_cycle;Max_cycle;Signal;HPM_P1;HPM_P2
2022/04/29 00:02:51;;;;;;;38.90;18.50;;;;;;;6.38;54.87;100195.88;108246;1287;22740;-84
2022/04/29 00:05:30;;;;;;;37.80;17.30;;;;;;;6.33;55.10;100194.44;108329;1287;22609;-85
2022/04/29 00:08:00;;;;;;;35.50;15.80;;;;;;;6.32;54.95;100197.49;109057;1277;22472;-84
2022/04/29 00:10:31;;;;;;;36.30;16.40;;;;;;;6.34;54.98;100197.93;109088;1279;22394;-84
2022/04/29 00:13:03;;;;;;;37.20;15.70;;;;;;;6.30;54.86;100196.67;109073;1278;24615;-84
2022/04/29 00:15:30;;;;;;;33.80;15.00;;;;;;;6.29;54.86;100193.20;108835;1278;23124;-85
2022/04/29 00:18:00;;;;;;;35.30;16.10;;;;;;;6.30;55.16;100188.02;109310;1278;22183;-85
2022/04/29 00:20:27;;;;;;;40.10;17.20;;;;;;;6.34;54.91;100191.41;108954;1279;23376;-85
2022/04/29 00:22:54;;;;;;;39.60;17.60;;;;;;;6.36;54.99;100186.55;109021;1277;22504;-84
2022/04/29 00:25:23;;;;;;;36.70;17.00;;;;;;;6.38;55.12;100187.19;109220;1277;22338;-85
2022/04/29 00:27:53;;;;;;;37.90;16.70;;;;;;;6.41;55.18;100188.50;109133;1276;22462;-85
2022/04/29 00:30:27;;;;;;;37.60;18.30;;;;;;;6.38;55.33;100189.69;109333;1278;22403;-85
2022/04/29 00:32:57;;;;;;;37.70;16.50;;;;;;;6.35;55.03;100189.60;109167;1277;22365;-85
2022/04/29 00:35:29;;;;;;;39.80;18.30;;;;;;;6.34;55.50;100187.85;109369;1276;22581;-84
2022/04/29 00:37:57;;;;;;;38.60;18.00;;;;;;;6.36;55.24;100188.67;109113;1278;22511;-85
2022/04/29 00:40:35;;;;;;;36.70;17.10;;;;;;;6.38;55.13;100185.95;109123;1279;22416;-85
2022/04/29 00:43:02;;;;;;;32.80;15.80;;;;;;;6.42;55.36;100186.34;109075;1280;22328;-85
2022/04/29 00:45:29;;;;;;;32.80;15.10;;;;;;;6.47;55.29;100183.33;109097;1279;23000;-85
2022/04/29 00:48:08;;;;;;;30.50;15.00;;;;;;;6.51;55.55;100179.45;109153;1279;22500;-85
2022/04/29 00:50:35;;;;;;;31.30;13.70;;;;;;;6.56;55.51;100177.50;109374;1277;22488;-85
2022/04/29 00:53:36;;;;;;;;;;;;;;;;;;;;;
2022/04/29 00:56:30;;;;;;;31.80;15.30;;;;;;;6.73;55.05;100171.52;109283;1276;22434;-85
2022/04/29 00:59:15;;;;;;;36.20;15.10;;;;;;;6.74;55.15;100165.63;109426;1278;22342;-84
2022/04/29 01:01:46;;;;;;;36.60;16.00;;;;;;;6.73;55.45;100173.29;109429;1278;23005;-84
2022/04/29 01:04:31;;;;;;;34.60;14.80;;;;;;;6.69;55.30;100174.33;108989;1278;22487;-84
2022/04/29 01:07:05;;;;;;;29.00;15.60;;;;;;;6.65;55.76;100172.89;108906;1278;22444;-84
2022/04/29 01:09:35;;;;;;;31.40;14.40;;;;;;;6.63;55.50;100171.39;109271;1277;22462;-84
2022/04/29 01:12:02;;;;;;;31.00;14.50;;;;;;;6.66;55.73;100172.52;109353;1276;23050;-84
2022/04/29 01:14:35;;;;;;;33.20;14.90;;;;;;;6.71;56.12;100170.55;109047;1276;22452;-84
2022/04/29 01:17:10;;;;;;;31.60;14.80;;;;;;;6.78;55.88;100163.75;109186;1276;23158;-83
2022/04/29 01:19:47;;;;;;;30.80;14.30;;;;;;;6.87;55.99;100162.85;109193;1276;22507;-84
2022/04/29 01:22:23;;;;;;;31.40;14.70;;;;;;;6.93;55.60;100160.13;109059;1277;22553;-84
2022/04/29 01:24:50;;;;;;;31.60;14.20;;;;;;;6.96;56.25;100159.48;109163;1277;22643;-84
2022/04/29 01:27:21;;;;;;;27.80;14.70;;;;;;;6.99;56.22;100156.88;109056;1276;22526;-84
2022/04/29 01:30:15;;;;;;;31.10;14.50;;;;;;;7.01;56.01;100151.13;109196;1278;22552;-84
2022/04/29 01:32:43;;;;;;;31.50;15.00;;;;;;;7.02;56.33;100145.44;109139;1276;22461;-84
2022/04/29 01:35:14;;;;;;;28.40;12.70;;;;;;;7.02;55.83;100145.27;109035;1276;22364;-84
2022/04/29 01:38:14;;;;;;;30.30;14.10;;;;;;;7.05;56.05;100145.63;109161;1277;22348;-84
2022/04/29 01:40:57;;;;;;;28.20;14.30;;;;;;;7.03;56.48;100152.28;109397;1277;22607;-84
2022/04/29 01:43:34;;;;;;;32.90;13.20;;;;;;;7.03;56.35;100148.40;109051;1276;22428;-84
2022/04/29 01:46:02;;;;;;;33.90;14.10;;;;;;;7.00;56.41;100147.98;108996;1278;22524;-84
2022/04/29 01:48:48;;;;;;;30.50;14.90;;;;;;;6.99;56.27;100144.13;109159;1275;22451;-84
2022/04/29 01:51:24;;;;;;;34.70;15.40;;;;;;;7.01;56.75;100149.56;109195;1276;22293;-85
2022/04/29 01:53:55;;;;;;;28.00;13.30;;;;;;;6.98;56.71;100149.65;108798;1278;22434;-84
2022/04/29 01:56:33;;;;;;;29.80;13.80;;;;;;;6.91;56.65;100154.71;109327;1277;22653;-85
2022/04/29 01:59:03;;;;;;;27.70;14.20;;;;;;;6.87;56.75;100151.69;109138;1277;22181;-84
2022/04/29 02:01:33;;;;;;;35.40;12.80;;;;;;;6.89;56.74;100142.95;109114;1279;22383;-84
2022/04/29 02:04:01;;;;;;;24.40;10.60;;;;;;;6.95;56.57;100135.27;109305;1276;22385;-84
2022/04/29 02:06:31;;;;;;;27.20;10.80;;;;;;;7.02;56.64;100131.77;109360;1277;22453;-85
2022/04/29 02:09:00;;;;;;;24.80;10.50;;;;;;;7.12;56.56;100131.39;109156;1277;22406;-84
2022/04/29 02:11:31;;;;;;;27.10;9.10;;;;;;;7.20;56.43;100128.76;109117;1277;22423;-84
2022/04/29 02:14:21;;;;;;;20.10;9.20;;;;;;;7.26;56.62;100126.05;109078;1278;22207;-84
2022/04/29 02:17:29;;;;;;;;;;;;;;;;;;;;;
2022/04/29 02:20:01;;;;;;;19.80;9.80;;;;;;;7.27;56.39;100130.23;109368;1277;22699;-84
2022/04/29 02:22:30;;;;;;;19.60;9.70;;;;;;;7.24;56.73;100126.48;109047;1277;22539;-85
2022/04/29 02:24:58;;;;;;;24.10;9.20;;;;;;;7.21;56.68;100128.89;109357;1277;22400;-85
2022/04/29 02:27:43;;;;;;;21.50;9.30;;;;;;;7.17;56.43;100127.27;109066;1277;22416;-85
2022/04/29 02:30:13;;;;;;;24.70;10.80;;;;;;;7.25;56.74;100126.62;109335;1278;23150;-84
2022/04/29 02:32:45;;;;;;;22.20;10.60;;;;;;;7.28;56.84;100129.67;109343;1277;22384;-84
2022/04/29 02:35:16;;;;;;;29.50;12.00;;;;;;;7.26;56.76;100122.48;109404;1277;22502;-85
2022/04/29 02:38:01;;;;;;;;;;;;;;;;;;;;;
2022/04/29 02:40:31;;;;;;;23.90;11.80;;;;;;;7.28;56.79;100127.73;109202;1277;23306;-84
2022/04/29 02:43:00;;;;;;;26.10;12.20;;;;;;;7.19;56.69;100129.48;109405;1277;22410;-84
2022/04/29 02:45:28;;;;;;;29.50;13.00;;;;;;;7.13;56.79;100121.09;109129;1278;22478;-84
2022/04/29 02:47:55;;;;;;;27.30;12.50;;;;;;;7.05;56.89;100126.00;109390;1278;22505;-85
2022/04/29 02:50:22;;;;;;;30.10;13.00;;;;;;;7.02;56.75;100121.17;109119;1277;22412;-85
2022/04/29 02:53:06;;;;;;;25.60;11.60;;;;;;;6.96;56.79;100120.87;108991;1278;22577;-84
2022/04/29 02:55:37;;;;;;;24.50;11.30;;;;;;;6.92;56.71;100114.69;109175;1278;22579;-85
2022/04/29 02:58:06;;;;;;;26.30;11.40;;;;;;;6.93;57.13;100114.97;109379;1278;22465;-84
2022/04/29 03:00:38;;;;;;;21.90;10.20;;;;;;;6.97;57.02;100119.77;109372;1278;22430;-85
2022/04/29 03:03:15;;;;;;;21.30;10.20;;;;;;;6.99;56.96;100121.45;109213;1278;22626;-84
2022/04/29 03:05:46;;;;;;;23.50;10.10;;;;;;;7.04;57.40;100124.63;109201;1277;22385;-84
2022/04/29 03:08:23;;;;;;;23.70;11.10;;;;;;;7.14;57.22;100127.23;109084;1278;22448;-84
2022/04/29 03:10:57;;;;;;;27.60;11.60;;;;;;;7.22;57.54;100127.43;109164;1278;22453;-85
2022/04/29 03:13:26;;;;;;;27.70;12.50;;;;;;;7.27;57.29;100134.31;109359;1278;22485;-84
2022/04/29 03:16:08;;;;;;;26.60;12.70;;;;;;;7.24;57.39;100131.62;109360;1277;22459;-84
2022/04/29 03:18:46;;;;;;;33.70;13.20;;;;;;;7.26;57.28;100134.02;109234;1278;23252;-85
2022/04/29 03:21:48;;;;;;;32.40;13.60;;;;;;;7.27;57.37;100135.17;109393;1278;22445;-84
2022/04/29 03:24:31;;;;;;;;;;;;;;;;;;;;;
2022/04/29 03:27:16;;;;;;;27.80;12.20;;;;;;;7.26;57.64;100131.55;109376;1277;22344;-85
2022/04/29 03:29:57;;;;;;;;;;;;;;;;;;;;;
2022/04/29 03:33:12;;;;;;;;;;;;;;;;;;;;;
2022/04/29 03:36:18;;;;;;;;;;;;;;;;;;;;;
2022/04/29 03:39:02;;;;;;;21.80;8.90;;;;;;;7.20;58.06;100134.05;109509;1277;22442;-85
2022/04/29 03:41:49;;;;;;;;;;;;;;;;;;;;;
2022/04/29 03:45:08;;;;;;;;;;;;;;;;;;;;;
2022/04/29 03:48:01;;;;;;;13.60;6.70;;;;;;;7.42;57.32;100138.11;108363;1286;22538;-84
2022/04/29 03:51:04;;;;;;;16.80;6.20;;;;;;;7.49;57.51;100138.89;107789;1290;22531;-84
2022/04/29 03:54:37;;;;;;;14.10;7.00;;;;;;;7.55;57.61;100137.36;107679;1293;22414;-85
2022/04/29 03:57:25;;;;;;;15.20;6.20;;;;;;;7.63;57.58;100144.86;107571;1292;22435;-85
2022/04/29 04:01:16;;;;;;;15.10;6.40;;;;;;;7.70;57.65;100147.39;107733;1291;23376;-85
2022/04/29 04:04:09;;;;;;;;;;;;;;;;;;;;;
2022/04/29 04:07:08;;;;;;;17.30;7.50;;;;;;;7.93;57.45;100149.77;107286;1296;22202;-85
2022/04/29 04:10:06;;;;;;;;;;;;;;;;;;;;;
2022/04/29 04:13:01;;;;;;;17.20;7.20;;;;;;;8.07;57.50;100157.63;107382;1296;22898;-85
2022/04/29 04:16:08;;;;;;;;;;;;;;;;;;;;;
2022/04/29 04:19:24;;;;;;;;;;;;;;;;;;;;;
2022/04/29 04:23:16;;;;;;;17.00;6.50;;;;;;;8.20;57.52;100163.07;107435;1295;22661;-85
2022/04/29 04:26:01;;;;;;;;;;;;;;;;;;;;;
2022/04/29 04:28:56;;;;;;;;;;;;;;;;;;;;;
2022/04/29 04:31:33;;;;;;;15.80;7.30;;;;;;;8.36;57.49;100168.62;108483;1284;23382;-85
2022/04/29 04:37:06;;;;;;;;;;;;;;;;;;;;;
2022/04/29 04:39:46;;;;;;;;;;;;;;;;;;;;;
2022/04/29 04:42:35;;;;;;;18.10;7.70;;;;;;;8.50;57.48;100173.63;109178;1277;22401;-85
2022/04/29 04:45:25;;;;;;;18.30;7.50;;;;;;;8.57;57.25;100175.09;109295;1277;22495;-85
2022/04/29 04:48:26;;;;;;;15.20;7.50;;;;;;;8.64;57.31;100173.90;109147;1277;22528;-84
2022/04/29 04:52:21;;;;;;;15.70;7.50;;;;;;;8.70;57.14;100180.88;108387;1286;22473;-85
2022/04/29 04:54:37;;;;;;;14.10;7.30;;;;;;;8.80;57.32;100185.75;108381;1284;22458;-85
2022/04/29 04:57:10;;;;;;;18.00;7.30;;;;;;;8.89;57.47;100188.31;108560;1285;22257;-85
2022/04/29 04:59:37;;;;;;;13.70;7.30;;;;;;;8.99;57.71;100186.83;108399;1284;22693;-84
2022/04/29 05:02:10;;;;;;;14.70;7.70;;;;;;;9.12;57.39;100195.58;108495;1284;23355;-84
2022/04/29 05:04:57;;;;;;;17.60;7.50;;;;;;;9.24;57.25;100199.29;108569;1284;22953;-85
2022/04/29 05:07:32;;;;;;;16.40;7.30;;;;;;;9.38;57.55;100199.51;108440;1285;22454;-85
2022/04/29 05:10:00;;;;;;;18.90;7.40;;;;;;;9.55;57.25;100198.47;108431;1284;22453;-85
2022/04/29 05:12:27;;;;;;;15.60;7.20;;;;;;;9.70;57.39;100198.07;108588;1284;22539;-84
2022/04/29 05:15:00;;;;;;;17.00;7.50;;;;;;;10.08;57.55;100199.35;108470;1285;22503;-85
2022/04/29 05:17:27;;;;;;;16.70;7.40;;;;;;;10.39;57.40;100193.12;108496;1284;23348;-84
2022/04/29 05:20:18;;;;;;;18.50;7.10;;;;;;;10.59;57.26;100197.17;108312;1284;22446;-86
2022/04/29 05:22:47;;;;;;;16.20;7.20;;;;;;;10.71;56.98;100192.08;108611;1279;22028;-88
2022/04/29 05:25:24;;;;;;;22.70;7.60;;;;;;;10.71;56.68;100186.05;108967;1279;22492;-89
2022/04/29 05:28:15;;;;;;;15.70;6.40;;;;;;;10.76;56.59;100185.40;109204;1279;22371;-85
2022/04/29 05:31:04;;;;;;;14.40;5.40;;;;;;;10.98;56.37;100187.95;109106;1279;23165;-90
2022/04/29 05:33:53;;;;;;;14.30;5.90;;;;;;;11.06;56.12;100185.32;109217;1279;23125;-88
2022/04/29 05:36:39;;;;;;;20.90;6.30;;;;;;;11.09;55.96;100193.02;109076;1279;22880;-89
2022/04/29 05:42:28;;;;;;;22.00;6.30;;;;;;;11.05;55.97;100190.73;108985;1279;22434;-86
2022/04/29 05:45:00;;;;;;;27.50;7.70;;;;;;;11.14;56.29;100191.85;109245;1277;22486;-87
2022/04/29 05:47:29;;;;;;;26.20;11.90;;;;;;;11.21;56.14;100195.53;108993;1277;22594;-87
2022/04/29 05:49:59;;;;;;;29.50;14.20;;;;;;;11.44;55.85;100199.36;108781;1277;22553;-86
2022/04/29 05:52:31;;;;;;;19.70;9.10;;;;;;;11.77;55.59;100203.91;109015;1278;23535;-87
2022/04/29 05:54:59;;;;;;;22.20;8.80;;;;;;;11.95;55.21;100203.59;108907;1279;23327;-88
2022/04/29 05:57:37;;;;;;;26.00;8.70;;;;;;;11.99;54.73;100205.45;109060;1277;22342;-88
2022/04/29 06:00:08;;;;;;;34.00;8.40;;;;;;;12.23;55.25;100206.15;109307;1277;22419;-88
2022/04/29 06:02:58;;;;;;;21.10;6.70;;;;;;;12.65;55.58;100206.08;109389;1277;22380;-88
2022/04/29 06:05:28;;;;;;;25.50;7.50;;;;;;;13.07;55.31;100205.58;109182;1277;22386;-87
2022/04/29 06:07:56;;;;;;;28.10;8.20;;;;;;;13.39;55.32;100202.64;109041;1277;22322;-88
2022/04/29 06:10:33;;;;;;;25.90;7.90;;;;;;;13.65;55.34;100201.41;109112;1279;22452;-89
2022/04/29 06:13:15;;;;;;;19.80;6.80;;;;;;;13.83;55.30;100198.28;108684;1280;22493;-88
2022/04/29 06:16:21;;;;;;;20.00;7.00;;;;;;;14.14;55.53;100196.71;109208;1279;22451;-88
2022/04/29 06:19:09;;;;;;;29.50;7.80;;;;;;;14.54;55.60;100194.83;109077;1277;22761;-87
2022/04/29 06:22:17;;;;;;;23.00;7.60;;;;;;;14.97;55.48;100196.08;108547;1277;22562;-84
2022/04/29 06:24:48;;;;;;;21.20;7.30;;;;;;;15.15;54.90;100195.67;109167;1277;22588;-87
2022/04/29 06:27:21;;;;;;;21.60;6.70;;;;;;;15.00;54.46;100195.27;109314;1277;23375;-86
2022/04/29 06:30:01;;;;;;;14.50;6.20;;;;;;;15.10;54.90;100192.58;109145;1277;22455;-89
2022/04/29 06:32:44;;;;;;;23.20;6.40;;;;;;;15.35;54.86;100194.14;109259;1277;23182;-88
2022/04/29 06:35:32;;;;;;;18.20;6.70;;;;;;;15.52;54.66;100190.93;109267;1279;22396;-87
2022/04/29 06:38:02;;;;;;;17.10;5.90;;;;;;;15.62;54.28;100193.76;108883;1277;23519;-88
2022/04/29 06:40:58;;;;;;;15.00;5.70;;;;;;;15.76;54.30;100196.53;109196;1277;22406;-88
2022/04/29 06:43:47;;;;;;;15.50;5.80;;;;;;;15.96;54.15;100193.72;109404;1277;22135;-89
2022/04/29 06:46:33;;;;;;;15.30;5.40;;;;;;;16.18;54.02;100200.80;109345;1277;23275;-85
2022/04/29 06:49:19;;;;;;;18.40;5.90;;;;;;;16.25;53.24;100200.48;109148;1277;22184;-88
2022/04/29 06:52:10;;;;;;;15.20;5.70;;;;;;;16.04;53.66;100199.44;108923;1277;22459;-88
2022/04/29 06:54:41;;;;;;;15.30;5.70;;;;;;;16.28;53.93;100193.60;108956;1278;22521;-85
2022/04/29 06:57:12;;;;;;;12.40;5.80;;;;;;;16.53;53.57;100193.45;109219;1277;22178;-85
2022/04/29 06:59:44;;;;;;;18.60;5.70;;;;;;;16.70;53.43;100196.94;109330;1278;23112;-86
2022/04/29 07:02:17;;;;;;;14.20;5.50;;;;;;;16.76;53.65;100194.18;109227;1277;22398;-86
2022/04/29 07:04:44;;;;;;;13.50;4.80;;;;;;;17.09;53.54;100192.69;109226;1277;23146;-86
2022/04/29 07:07:15;;;;;;;13.10;5.00;;;;;;;17.28;53.23;100191.52;109233;1278;22485;-86
2022/04/29 07:09:46;;;;;;;10.00;4.60;;;;;;;17.43;53.18;100191.74;109532;1277;22328;-87
2022/04/29 07:12:22;;;;;;;13.80;4.20;;;;;;;17.50;53.01;100189.86;109359;1277;22602;-86
2022/04/29 07:15:23;;;;;;;14.40;4.70;;;;;;;17.56;52.86;100196.62;109182;1277;22195;-86
2022/04/29 07:18:11;;;;;;;12.50;4.60;;;;;;;17.75;53.10;100197.17;109310;1277;22392;-86
2022/04/29 07:20:49;;;;;;;12.10;4.60;;;;;;;17.99;52.96;100203.13;109337;1277;22363;-85
2022/04/29 07:23:19;;;;;;;12.40;5.20;;;;;;;18.12;52.32;100202.89;109047;1277;22366;-85
2022/04/29 07:25:54;;;;;;;12.60;4.60;;;;;;;17.80;51.14;100200.73;109222;1277;23247;-86
2022/04/29 07:28:23;;;;;;;12.50;4.50;;;;;;;17.18;51.14;100202.27;109052;1277;22427;-86
2022/04/29 07:30:52;;;;;;;13.30;4.50;;;;;;;17.20;52.00;100205.17;109288;1277;22177;-86
2022/04/29 07:33:39;;;;;;;8.70;3.70;;;;;;;17.45;52.41;100202.89;109417;1277;22363;-86
2022/04/29 07:43:19;;;;;;;16.30;6.20;;;;;;;18.23;51.89;100196.39;109565;1277;22337;-86
2022/04/29 07:46:04;;;;;;;;;;;;;;;;;;;;;
2022/04/29 07:49:11;;;;;;;;;;;;;;;;;;;;;
2022/04/29 07:51:55;;;;;;;18.20;5.80;;;;;;;18.83;51.72;100192.64;109446;1277;22401;-86
2022/04/29 07:54:41;;;;;;;31.20;13.20;;;;;;;18.98;51.48;100192.02;109299;1278;22413;-86
2022/04/29 07:57:36;;;;;;;70.70;29.10;;;;;;;18.98;50.99;100190.91;109344;1277;22355;-84
2022/04/29 08:00:21;;;;;;;;;;;;;;;;;;;;;
2022/04/29 08:02:48;;;;;;;14.80;4.80;;;;;;;18.95;50.82;100187.42;109294;1277;23212;-86
2022/04/29 08:05:23;;;;;;;18.30;4.50;;;;;;;18.92;50.44;100186.36;109325;1277;23197;-85
2022/04/29 08:07:50;;;;;;;14.30;4.20;;;;;;;18.77;49.89;100187.22;109018;1277;22975;-85
2022/04/29 08:10:33;;;;;;;13.00;4.00;;;;;;;18.50;50.08;100186.60;109367;1277;22404;-86
2022/04/29 08:13:03;;;;;;;14.30;5.00;;;;;;;18.38;50.05;100189.16;109294;1277;23017;-85
2022/04/29 08:15:49;;;;;;;12.00;4.20;;;;;;;18.39;50.25;100185.66;109328;1277;23301;-86
2022/04/29 08:18:31;;;;;;;11.40;4.10;;;;;;;18.40;49.66;100183.19;109287;1277;22452;-86
2022/04/29 08:20:58;;;;;;;13.50;5.00;;;;;;;18.18;49.57;100188.00;109043;1277;22380;-85
2022/04/29 08:23:26;;;;;;;13.20;4.60;;;;;;;18.16;49.83;100184.59;109053;1278;22440;-85
2022/04/29 08:25:52;;;;;;;14.00;4.60;;;;;;;18.34;50.61;100180.42;109272;1277;22346;-85
2022/04/29 08:28:28;;;;;;;12.20;4.80;;;;;;;18.76;50.63;100183.69;108953;1277;22463;-84
2022/04/29 08:30:55;;;;;;;13.70;4.70;;;;;;;19.08;49.85;100181.50;109271;1276;22329;-85
2022/04/29 08:33:33;;;;;;;10.40;4.20;;;;;;;18.95;48.79;100174.95;109277;1276;22538;-88
2022/04/29 08:36:09;;;;;;;9.50;3.50;;;;;;;18.71;48.06;100175.29;109389;1276;22837;-85
2022/04/29 08:38:40;;;;;;;13.10;4.10;;;;;;;18.32;48.51;100178.48;109054;1276;22400;-84
2022/04/29 08:41:10;;;;;;;9.50;3.60;;;;;;;18.38;48.88;100177.97;109274;1277;23043;-86
2022/04/29 08:43:38;;;;;;;9.30;4.00;;;;;;;18.38;48.67;100177.40;109369;1277;22321;-84
2022/04/29 08:46:08;;;;;;;12.10;4.20;;;;;;;18.39;49.18;100176.20;109249;1277;23113;-85
2022/04/29 08:49:07;;;;;;;9.30;3.60;;;;;;;18.33;48.66;100168.27;109385;1277;22344;-86
2022/04/29 08:51:36;;;;;;;8.80;3.50;;;;;;;18.44;48.57;100168.98;109279;1276;22486;-87
2022/04/29 08:54:04;;;;;;;9.20;3.20;;;;;;;18.62;48.45;100161.40;109269;1276;22531;-88
2022/04/29 08:59:33;;;;;;;11.10;3.00;;;;;;;18.63;46.34;100166.44;109328;1276;22593;-86
2022/04/29 09:02:02;;;;;;;9.30;3.70;;;;;;;18.72;47.98;100161.48;109411;1276;22442;-86
2022/04/29 09:04:29;;;;;;;10.20;4.00;;;;;;;19.00;47.91;100153.21;109047;1276;22180;-85
2022/04/29 09:07:05;;;;;;;9.20;3.50;;;;;;;19.45;48.31;100154.52;109360;1276;23072;-87
2022/04/29 09:09:32;;;;;;;9.40;4.00;;;;;;;19.56;47.17;100159.13;108967;1276;23261;-86
2022/04/29 09:12:16;;;;;;;10.40;3.80;;;;;;;19.36;47.62;100151.92;109388;1276;22244;-84
2022/04/29 09:14:43;;;;;;;9.00;4.20;;;;;;;18.91;46.53;100158.72;109297;1276;22479;-87
2022/04/29 09:17:26;;;;;;;11.40;3.20;;;;;;;18.30;47.20;100156.08;109054;1276;23135;-85
2022/04/29 09:19:52;;;;;;;9.90;3.90;;;;;;;18.03;47.32;100159.74;109412;1276;23149;-87
2022/04/29 09:22:20;;;;;;;8.80;3.90;;;;;;;18.00;46.87;100159.98;109266;1276;22490;-90
2022/04/29 09:25:00;;;;;;;9.60;3.90;;;;;;;17.84;46.50;100164.57;109292;1276;22427;-87
2022/04/29 09:28:12;;;;;;;11.20;4.00;;;;;;;17.79;47.28;100161.77;109409;1276;22364;-88
2022/04/29 09:31:00;;;;;;;10.90;3.80;;;;;;;17.69;46.92;100161.86;109226;1277;22556;-88
2022/04/29 09:33:55;;;;;;;9.90;4.00;;;;;;;17.82;47.13;100158.95;109296;1276;22994;-87
2022/04/29 09:36:27;;;;;;;9.60;3.70;;;;;;;17.70;46.96;100150.45;109403;1277;23292;-87
2022/04/29 09:42:10;;;;;;;13.70;5.10;;;;;;;18.29;47.84;100148.84;109247;1277;22965;-86
2022/04/29 09:44:40;;;;;;;9.00;4.30;;;;;;;18.81;47.64;100145.90;109409;1277;22341;-84
2022/04/29 09:47:13;;;;;;;10.10;3.80;;;;;;;19.25;47.65;100147.99;109238;1277;23088;-87
2022/04/29 09:49:54;;;;;;;8.00;3.20;;;;;;;19.22;46.78;100143.75;109258;1277;22450;-89
2022/04/29 09:52:30;;;;;;;9.90;3.80;;;;;;;18.82;46.00;100145.43;109275;1277;22587;-87
2022/04/29 09:55:17;;;;;;;8.70;3.90;;;;;;;18.64;46.32;100143.41;109086;1277;22332;-87
2022/04/29 09:58:09;;;;;;;11.60;4.60;;;;;;;18.27;45.88;100150.45;109314;1277;22482;-86
2022/04/29 10:00:36;;;;;;;10.40;4.10;;;;;;;17.71;45.89;100151.65;109408;1276;22786;-87
2022/04/29 10:03:03;;;;;;;10.20;4.50;;;;;;;17.54;46.50;100149.23;109281;1277;22486;-86
2022/04/29 10:05:33;;;;;;;12.80;4.40;;;;;;;17.56;46.35;100145.45;109072;1277;22416;-87
2022/04/29 10:08:07;;;;;;;12.30;4.80;;;;;;;17.76;46.04;100145.06;109237;1277;23241;-82
2022/04/29 10:10:40;;;;;;;9.60;3.80;;;;;;;17.93;46.02;100142.02;109241;1277;22469;-86
2022/04/29 10:13:11;;;;;;;13.20;5.20;;;;;;;18.10;46.26;100136.19;109009;1277;22346;-85
2022/04/29 10:15:39;;;;;;;8.00;3.80;;;;;;;18.44;46.90;100129.09;109269;1277;22511;-87
2022/04/29 10:21:40;;;;;;;11.30;4.50;;;;;;;19.13;46.11;100126.20;109339;1276;22424;-87
2022/04/29 10:24:08;;;;;;;10.20;4.30;;;;;;;19.05;45.44;100122.92;109520;1276;22349;-87
2022/04/29 10:26:35;;;;;;;10.50;4.10;;;;;;;19.22;46.16;100127.02;109401;1277;22980;-88
2022/04/29 10:29:03;;;;;;;10.50;4.00;;;;;;;18.96;45.32;100123.02;109241;1277;22409;-87
2022/04/29 10:31:30;;;;;;;12.00;4.40;;;;;;;18.87;46.05;100126.95;109240;1277;22455;-88
2022/04/29 10:34:34;;;;;;;9.20;4.20;;;;;;;19.26;45.62;100126.97;109231;1277;22378;-87
2022/04/29 10:37:18;;;;;;;11.80;3.90;;;;;;;19.38;45.28;100125.22;109574;1277;22528;-89
2022/04/29 10:40:13;;;;;;;10.30;4.10;;;;;;;19.47;44.90;100119.15;109391;1277;23252;-88
2022/04/29 10:43:10;;;;;;;13.70;4.10;;;;;;;19.49;44.18;100117.33;109429;1277;22358;-89
2022/04/29 10:46:07;;;;;;;9.70;4.90;;;;;;;19.44;44.14;100113.41;109252;1277;23191;-86
2022/04/29 10:48:43;;;;;;;9.40;4.30;;;;;;;19.69;45.38;100109.46;109230;1277;22584;-88
2022/04/29 10:51:51;;;;;;;11.00;4.20;;;;;;;20.04;44.74;100111.42;109399;1277;22530;-90
2022/04/29 10:54:46;;;;;;;11.20;5.20;;;;;;;20.00;44.72;100105.53;109319;1277;23134;-85
2022/04/29 10:57:47;;;;;;;13.50;4.60;;;;;;;19.98;44.70;100107.81;109321;1277;23140;-87
2022/04/29 11:00:31;;;;;;;9.20;4.50;;;;;;;19.55;44.20;100110.09;109208;1277;22439;-86
2022/04/29 11:03:38;;;;;;;10.20;4.80;;;;;;;19.13;44.28;100106.85;109104;1279;22487;-86
2022/04/29 11:06:09;;;;;;;8.80;3.60;;;;;;;19.00;44.55;100102.86;109106;1278;23348;-87
2022/04/29 11:09:38;;;;;;;;;;;;;;;;;;;;;
2022/04/29 11:12:49;;;;;;;8.50;2.90;;;;;;;19.42;42.92;100100.06;108374;1286;22598;-89
2022/04/29 11:15:57;;;;;;;9.10;3.10;;;;;;;19.27;42.57;100092.98;108641;1283;22600;-90
2022/04/29 11:19:40;;;;;;;9.60;3.20;;;;;;;19.07;42.01;100095.00;108275;1287;22729;-90
2022/04/29 11:26:21;;;;;;;6.60;2.50;;;;;;;19.07;43.68;100086.64;108477;1284;23252;-91
2022/04/29 11:29:10;;;;;;;11.20;2.60;;;;;;;19.13;43.28;100085.98;108478;1284;22462;-85
2022/04/29 11:31:59;;;;;;;17.20;2.80;;;;;;;19.26;42.46;100084.17;108280;1285;22415;-87
2022/04/29 11:34:27;;;;;;;9.20;2.60;;;;;;;19.49;42.16;100079.04;108366;1285;22914;-87
2022/04/29 11:36:57;;;;;;;9.20;2.70;;;;;;;19.44;42.18;100078.23;108328;1285;23255;-89
2022/04/29 11:39:37;;;;;;;7.70;2.50;;;;;;;19.30;41.92;100074.64;108034;1286;385348;-89
2022/04/29 11:42:08;;;;;;;7.60;2.50;;;;;;;19.31;42.24;100077.45;108120;1287;23717;-91
2022/04/29 11:44:43;;;;;;;9.40;3.40;;;;;;;19.45;42.33;100076.50;108269;1285;22439;-87
2022/04/29 11:47:13;;;;;;;9.80;2.90;;;;;;;19.62;41.96;100069.27;108399;1285;22438;-90
2022/04/29 11:50:09;;;;;;;6.70;2.40;;;;;;;19.56;42.13;100061.77;109059;1279;22455;-88
2022/04/29 11:52:39;;;;;;;7.10;2.70;;;;;;;19.84;42.57;100061.44;109327;1277;22478;-88
2022/04/29 11:55:14;;;;;;;13.20;3.00;;;;;;;20.04;42.05;100055.05;109416;1277;22499;-90
2022/04/29 11:57:55;;;;;;;5.60;2.10;;;;;;;20.07;41.11;100049.88;109428;1277;22365;-88
2022/04/29 12:00:30;;;;;;;7.10;2.20;;;;;;;19.95;41.35;100047.60;109433;1278;23127;-89
2022/04/29 12:03:04;;;;;;;8.50;2.40;;;;;;;19.81;41.51;100047.15;109266;1277;22542;-87
2022/04/29 12:07:05;;;;;;;9.10;2.60;;;;;;;19.86;41.34;100042.85;109097;1278;22560;-87
2022/04/29 12:09:33;;;;;;;14.90;3.30;;;;;;;19.96;41.77;100033.58;109373;1279;23084;-86
2022/04/29 12:13:19;;;;;;;14.00;3.60;;;;;;;20.02;41.32;100033.39;109082;1278;22447;-89
2022/04/29 12:16:07;;;;;;;9.70;3.20;;;;;;;19.85;41.86;100033.02;109411;1278;22498;-86
2022/04/29 12:19:21;;;;;;;10.40;2.80;;;;;;;20.00;40.91;100025.25;109093;1281;22574;-86
2022/04/29 12:22:08;;;;;;;7.40;2.70;;;;;;;19.78;41.98;100026.27;109242;1277;23202;-90
2022/04/29 12:24:45;;;;;;;7.50;2.90;;;;;;;19.67;41.10;100019.73;109194;1279;22373;-90
2022/04/29 12:27:14;;;;;;;7.30;2.90;;;;;;;19.52;41.21;100022.60;109177;1278;22341;-90
2022/04/29 12:36:14;;;;;;;8.30;3.20;;;;;;;18.82;41.41;100007.02;109159;1279;22452;-86
2022/04/29 12:38:53;;;;;;;9.60;3.10;;;;;;;18.81;40.87;100009.30;109217;1277;23206;-87
2022/04/29 12:41:42;;;;;;;7.10;2.80;;;;;;;18.84;41.81;100008.30;109453;1277;22375;-87
2022/04/29 12:47:25;;;;;;;7.50;2.70;;;;;;;19.03;41.61;100000.63;109283;1279;22491;-87
2022/04/29 12:50:17;;;;;;;7.60;3.30;;;;;;;18.93;41.54;99998.45;109132;1279;22509;-85
2022/04/29 12:52:56;;;;;;;7.20;2.60;;;;;;;19.02;41.98;99997.20;109061;1278;23157;-86
2022/04/29 12:55:24;;;;;;;9.10;3.40;;;;;;;19.03;41.23;99992.61;109471;1277;22406;-85
2022/04/29 12:57:51;;;;;;;8.40;3.30;;;;;;;18.99;41.61;99989.27;109158;1277;22325;-82
2022/04/29 13:00:39;;;;;;;8.60;3.40;;;;;;;19.23;41.99;99985.39;109425;1277;22377;-85
2022/04/29 13:03:28;;;;;;;9.20;3.40;;;;;;;19.44;41.67;99984.50;109224;1278;22417;-85
2022/04/29 13:06:19;;;;;;;9.30;3.10;;;;;;;19.51;41.47;99973.76;109251;1278;22235;-83
2022/04/29 13:09:05;;;;;;;7.00;3.20;;;;;;;19.38;41.40;99974.23;109245;1278;22406;-86
2022/04/29 13:11:38;;;;;;;6.70;3.30;;;;;;;19.26;41.07;99971.21;109069;1278;22473;-86
2022/04/29 13:14:14;;;;;;;8.40;3.20;;;;;;;19.09;41.17;99968.45;109175;1278;22372;-86
2022/04/29 13:16:54;;;;;;;7.20;3.10;;;;;;;19.26;41.66;99966.11;109227;1277;22175;-86
2022/04/29 13:19:20;;;;;;;7.00;2.30;;;;;;;19.43;41.49;99962.21;109185;1278;22870;-88
2022/04/29 13:21:50;;;;;;;6.50;2.40;;;;;;;19.45;40.91;99965.27;109161;1277;22395;-90